Aeroporto :
LOGIN :

Iscrizione | Disclaimer

   EN    FR    IT 

 










Sommario :    VFR   VFR Marginale   IFR   IFR Intensivo   IFR Molto Intensivo
Visibilità : 
Base nubi : 
>= 8 km
>= 3000ft
5 / 8 km
1000 / 3000 ft
1500m / 5 km
500 / 1000 ft
800 / 1500m
200 / 500 ft
< 800m
< 200 ft
Simboli :   Temporali  Nebbia  Neve Forte  Precipitazioni Forti  Vento > 20 kt
SIGMETs :   Varie  Temporali  Ghiacco  Turbolenza  Onda orograficha  Ceneri Vulcaniche






- Altitudine del aeroporto : 308 ft
- Codice IATA : MHG


EDFM - Mannheim-City

ULTIMO METAR :
  • 202020Z AUTO 13002KT 9999 // FEW160/// 26/17 Q1007

METARs OBSOLETI :
  • 201950Z AUTO 11002KT 9999 // SCT160/// 27/17 Q1007
  • 201920Z AUTO VRB02KT 9999 // FEW180/// SCT230/// 28/16 Q1007
  • 201850Z 19004KT CAVOK 30/15 Q1007
  • 201820Z 20005KT 170V230 CAVOK 31/15 Q1007
  • 201750Z 18005KT 150V220 CAVOK 32/16 Q1007
  • 201720Z 18005KT 140V210 CAVOK 32/16 Q1007
  • 201650Z VRB03KT CAVOK 32/16 Q1007
  • 201620Z 12003KT 060V170 CAVOK 32/15 Q1007
  • 201550Z VRB03KT CAVOK 33/15 Q1008

Previsioni scadute.



MetMap, La meteo Aeronautica in un colpo d'occhio ! - Copyright ORBIFLY Dicembre 2007 - Disclaimer

ORBIFLY MET'MAP TEAM :

Programmazione e sviluppo : Alexandra Zaïnal
Concezione : Baudouin d'Aumeries
Supporto tecnico e logistico : Manuel Goepfert
Aiuto : Marc-Olivier Méhu
Aiuto per la traduzione : Arnaldo La Scala




FONTI E CREDITI :

   NOAA